Aviation Digital Data Service (ADDS)

Output produced by METARs form (0422 UTC 19 January 2017)
found at http://aviationweather.gov/adds/metars/
 
KFKL 182320Z 1900/1924 24005KT 4SM BR OVC005 
     FM191300 22005KT P6SM OVC012 
     FM191800 22005KT P6SM SCT150 AMD NOT SKED